createdAt,value
2023-04-25T00:01:50.551Z,6.08
2023-04-25T00:04:20.575Z,6.05
2023-04-25T00:06:50.441Z,6.08
2023-04-25T00:09:20.158Z,6.07
2023-04-25T00:11:52.468Z,6.08
2023-04-25T00:14:22.232Z,6.08
2023-04-25T00:16:52.973Z,6.10
2023-04-25T00:19:22.669Z,6.12
2023-04-25T00:21:52.362Z,6.08
2023-04-25T00:24:22.109Z,6.12
2023-04-25T00:26:54.431Z,6.13
2023-04-25T00:29:24.178Z,6.15
2023-04-25T00:31:53.925Z,6.15
2023-04-25T00:34:23.676Z,6.16
2023-04-25T00:36:53.503Z,6.19
2023-04-25T00:39:23.346Z,6.19
2023-04-25T00:41:57.247Z,6.22
2023-04-25T00:44:28.226Z,6.22
2023-04-25T00:46:58.044Z,6.24
2023-04-25T00:49:27.837Z,6.25
2023-04-25T00:51:57.644Z,6.25
2023-04-25T00:54:27.392Z,6.26
2023-04-25T00:56:59.666Z,6.25
2023-04-25T00:59:30.781Z,6.24
2023-04-25T01:02:00.928Z,6.26
2023-04-25T01:04:31.407Z,6.25
2023-04-25T01:07:03.891Z,6.26
2023-04-25T01:09:34.668Z,6.28
2023-04-25T01:12:07.360Z,6.26
2023-04-25T01:14:37.482Z,6.28
2023-04-25T01:17:10.096Z,6.27
2023-04-25T01:19:39.864Z,6.27
2023-04-25T01:22:13.743Z,6.24
2023-04-25T01:24:43.941Z,6.22
2023-04-25T01:27:14.841Z,6.24
2023-04-25T01:29:44.606Z,6.21
2023-04-25T01:32:14.730Z,6.22
2023-04-25T01:34:45.783Z,6.20
2023-04-25T01:37:18.199Z,6.20
2023-04-25T01:39:49.846Z,6.20
2023-04-25T01:42:19.599Z,6.20
2023-04-25T01:44:49.290Z,6.17
2023-04-25T01:47:18.956Z,6.18
2023-04-25T01:49:49.135Z,6.22
2023-04-25T01:52:21.550Z,6.22
2023-04-25T01:54:51.825Z,6.22
2023-04-25T01:57:21.700Z,6.21
2023-04-25T01:59:52.209Z,6.24
2023-04-25T02:02:42.186Z,6.26
2023-04-25T02:05:22.955Z,6.28
2023-04-25T02:07:55.364Z,6.29
2023-04-25T02:10:28.408Z,6.28
2023-04-25T02:13:18.691Z,6.29
2023-04-25T02:16:09.417Z,6.30
2023-04-25T02:18:41.891Z,6.30
2023-04-25T02:21:12.601Z,6.29
2023-04-25T02:23:46.732Z,6.29
2023-04-25T02:26:17.071Z,6.29
2023-04-25T02:28:46.789Z,6.29
2023-04-25T02:31:16.571Z,6.28
2023-04-25T02:33:46.842Z,6.31
2023-04-25T02:36:16.525Z,6.29
2023-04-25T02:38:48.841Z,6.29
2023-04-25T02:41:18.958Z,6.30
2023-04-25T02:43:49.066Z,6.28
2023-04-25T02:46:32.214Z,6.27
2023-04-25T02:49:09.380Z,6.28
2023-04-25T02:51:39.465Z,6.28
2023-04-25T02:54:11.866Z,6.28
2023-04-25T02:56:45.669Z,6.29
2023-04-25T02:59:20.551Z,6.27
2023-04-25T03:01:50.929Z,6.26
2023-04-25T03:04:20.668Z,6.25
2023-04-25T03:06:51.581Z,6.26
2023-04-25T03:09:26.641Z,6.25
2023-04-25T03:11:56.409Z,6.25
2023-04-25T03:14:26.656Z,6.22
2023-04-25T03:16:56.647Z,6.21
2023-04-25T03:19:26.462Z,6.21
2023-04-25T03:21:56.160Z,6.21
2023-04-25T03:24:29.345Z,6.22
2023-04-25T03:26:59.091Z,6.23
2023-04-25T03:29:29.861Z,6.24
2023-04-25T03:32:00.773Z,6.23
2023-04-25T03:34:30.673Z,6.23
2023-04-25T03:37:01.089Z,6.22
2023-04-25T03:39:34.318Z,6.17
2023-04-25T03:42:04.051Z,6.17
2023-04-25T03:44:34.414Z,6.13
2023-04-25T03:47:04.678Z,6.13
2023-04-25T03:49:34.926Z,6.13
2023-04-25T03:52:06.678Z,6.14
2023-04-25T03:54:42.725Z,6.14
2023-04-25T03:57:16.509Z,6.15
2023-04-25T03:59:46.902Z,6.13
2023-04-25T04:02:18.473Z,6.12
2023-04-25T04:04:49.216Z,6.09
2023-04-25T04:07:19.795Z,6.10
2023-04-25T04:09:53.998Z,6.11
2023-04-25T04:12:30.384Z,6.09
2023-04-25T04:15:00.117Z,6.11
2023-04-25T04:17:29.943Z,6.09
2023-04-25T04:20:00.613Z,6.09
2023-04-25T04:22:34.112Z,6.07
2023-04-25T04:25:13.877Z,6.07
2023-04-25T04:28:02.041Z,6.04
2023-04-25T04:30:53.660Z,5.95
2023-04-25T04:33:24.625Z,5.87
2023-04-25T04:36:00.286Z,5.84
2023-04-25T04:38:31.258Z,5.85
2023-04-25T04:41:07.300Z,5.87
2023-04-25T04:43:52.011Z,5.90
2023-04-25T04:46:43.553Z,5.92
2023-04-25T04:49:32.077Z,5.95
2023-04-25T04:52:31.044Z,5.94
2023-04-25T04:55:25.704Z,5.94
2023-04-25T04:58:10.201Z,5.95
2023-04-25T05:00:52.402Z,5.90
2023-04-25T05:04:01.864Z,5.89
2023-04-25T05:06:55.428Z,5.91
2023-04-25T05:09:44.208Z,5.91
2023-04-25T05:12:14.265Z,5.91
2023-04-25T05:14:55.319Z,5.94
2023-04-25T05:17:34.309Z,5.97
2023-04-25T05:20:22.736Z,5.99
2023-04-25T05:23:28.953Z,6.01
2023-04-25T05:26:35.348Z,6.04
2023-04-25T05:29:31.295Z,6.05
2023-04-25T05:32:22.602Z,6.08
2023-04-25T05:34:53.576Z,6.09
2023-04-25T05:37:28.320Z,6.11
2023-04-25T05:40:01.782Z,6.09
2023-04-25T05:42:50.344Z,6.09
2023-04-25T05:45:32.766Z,6.13
2023-04-25T05:48:15.956Z,6.14
2023-04-25T05:50:56.961Z,6.17
2023-04-25T05:53:45.132Z,6.21
2023-04-25T05:56:16.718Z,6.23
2023-04-25T05:58:46.720Z,6.25
2023-04-25T06:01:17.028Z,6.30
2023-04-25T06:03:51.053Z,6.33
2023-04-25T06:06:21.462Z,6.33
2023-04-25T06:08:51.510Z,6.35
2023-04-25T06:11:21.362Z,6.38
2023-04-25T06:13:51.276Z,6.43
2023-04-25T06:16:21.277Z,6.45
2023-04-25T06:18:53.736Z,6.52
2023-04-25T06:21:23.529Z,6.58
2023-04-25T06:23:54.763Z,6.60
2023-04-25T06:26:27.102Z,6.65
2023-04-25T06:28:56.830Z,6.64
2023-04-25T06:31:27.009Z,6.61
2023-04-25T06:34:01.232Z,6.55
2023-04-25T06:36:33.935Z,6.58
2023-04-25T06:39:10.111Z,6.58
2023-04-25T06:41:39.819Z,6.59
2023-04-25T06:44:11.593Z,6.59
2023-04-25T06:46:53.016Z,6.61
2023-04-25T06:49:25.796Z,6.66
2023-04-25T06:51:55.626Z,6.68
2023-04-25T06:54:25.987Z,6.77
2023-04-25T06:57:04.250Z,6.88
2023-04-25T06:59:35.340Z,6.94
2023-04-25T07:02:07.058Z,6.94
2023-04-25T07:04:39.827Z,6.94
2023-04-25T07:07:09.817Z,6.93
2023-04-25T07:09:49.435Z,6.87
2023-04-25T07:12:19.304Z,6.81
2023-04-25T07:14:49.206Z,6.82
2023-04-25T07:17:19.255Z,6.80
2023-04-25T07:19:52.746Z,6.73
2023-04-25T07:22:22.574Z,6.75
2023-04-25T07:24:54.297Z,6.71
2023-04-25T07:27:27.968Z,6.71
2023-04-25T07:30:19.330Z,6.75
2023-04-25T07:32:49.318Z,6.82
2023-04-25T07:35:21.756Z,6.89
2023-04-25T07:37:52.358Z,6.98
2023-04-25T07:40:23.709Z,7.05
2023-04-25T07:42:58.502Z,7.12
2023-04-25T07:45:36.216Z,7.13
2023-04-25T07:48:07.189Z,7.17
2023-04-25T07:50:42.722Z,7.24
2023-04-25T07:53:12.529Z,7.32
2023-04-25T07:55:49.630Z,7.39
2023-04-25T07:58:22.599Z,7.38
2023-04-25T08:00:57.024Z,7.51
2023-04-25T08:03:55.938Z,7.73
2023-04-25T08:06:36.279Z,7.90
2023-04-25T08:09:12.040Z,8.08
2023-04-25T08:11:43.921Z,8.34
2023-04-25T08:14:16.108Z,8.50
2023-04-25T08:16:47.406Z,8.65
2023-04-25T08:19:17.241Z,8.55
2023-04-25T08:21:53.008Z,8.54
2023-04-25T08:24:29.969Z,8.60
2023-04-25T08:27:00.180Z,8.67
2023-04-25T08:29:31.933Z,8.72
2023-04-25T08:32:01.965Z,8.83
2023-04-25T08:34:33.091Z,8.90
2023-04-25T08:37:09.396Z,8.94
2023-04-25T08:39:44.180Z,8.87
2023-04-25T08:42:41.426Z,9.16
2023-04-25T08:45:12.611Z,9.24
2023-04-25T08:47:45.163Z,9.36
2023-04-25T08:50:14.949Z,9.41
2023-04-25T08:52:49.294Z,9.35
2023-04-25T08:55:19.756Z,9.31
2023-04-25T08:57:49.808Z,9.16
2023-04-25T09:00:21.014Z,9.13
2023-04-25T09:02:51.295Z,9.05
2023-04-25T09:05:21.929Z,8.91
2023-04-25T09:07:59.300Z,8.90
2023-04-25T09:10:29.221Z,8.91
2023-04-25T09:13:09.952Z,9.00
2023-04-25T09:15:59.703Z,9.07
2023-04-25T09:18:49.128Z,9.15
2023-04-25T09:21:19.653Z,9.26
2023-04-25T09:23:53.818Z,9.49
2023-04-25T09:26:25.344Z,9.75
2023-04-25T09:29:08.865Z,9.78
2023-04-25T09:31:42.380Z,9.80
2023-04-25T09:34:16.803Z,9.85
2023-04-25T09:36:51.771Z,9.92
2023-04-25T09:39:48.558Z,10.00
2023-04-25T09:42:20.739Z,10.01
2023-04-25T09:44:50.996Z,10.04
2023-04-25T09:47:22.807Z,10.01
2023-04-25T09:49:53.278Z,9.96
2023-04-25T09:52:26.068Z,10.13
2023-04-25T09:58:49.038Z,10.33
2023-04-25T10:01:21.115Z,10.45
2023-04-25T10:04:05.381Z,10.46
2023-04-25T10:07:03.089Z,10.48
2023-04-25T10:09:34.962Z,10.56
2023-04-25T10:12:04.687Z,10.61
2023-04-25T10:14:37.697Z,10.57
2023-04-25T10:17:08.040Z,10.63
2023-04-25T10:19:37.887Z,10.78
2023-04-25T10:22:11.951Z,10.85
2023-04-25T10:24:42.714Z,11.04
2023-04-25T10:27:12.573Z,10.92
2023-04-25T10:29:45.890Z,10.81
2023-04-25T10:32:15.883Z,10.71
2023-04-25T10:34:48.238Z,10.65
2023-04-25T10:37:18.260Z,10.58
2023-04-25T10:39:48.152Z,10.45
2023-04-25T10:42:18.669Z,10.31
2023-04-25T10:45:05.324Z,10.32
2023-04-25T10:47:39.598Z,10.37
2023-04-25T10:50:10.347Z,10.36
2023-04-25T10:52:42.742Z,10.48
2023-04-25T10:55:12.774Z,10.49
2023-04-25T10:57:45.095Z,10.44
2023-04-25T11:00:20.171Z,10.30
2023-04-25T11:02:52.052Z,10.26
2023-04-25T11:05:26.007Z,10.20
2023-04-25T11:10:31.946Z,10.00
2023-04-25T11:13:02.400Z,9.92
2023-04-25T11:15:34.852Z,9.88
2023-04-25T11:18:04.876Z,9.85
2023-04-25T11:20:34.543Z,9.84
2023-04-25T11:25:35.401Z,9.82
2023-04-25T11:28:06.502Z,9.73
2023-04-25T11:30:38.803Z,9.74
2023-04-25T11:33:08.573Z,9.70
2023-04-25T11:35:38.244Z,9.71
2023-04-25T11:38:08.207Z,9.75
2023-04-25T11:44:02.330Z,9.92
2023-04-25T11:46:35.770Z,9.98
2023-04-25T11:49:06.084Z,10.05
2023-04-25T11:51:42.350Z,10.17
2023-04-25T11:54:12.951Z,10.34
2023-04-25T11:56:45.355Z,10.45
2023-04-25T11:59:15.292Z,10.64
2023-04-25T12:01:52.808Z,10.80
2023-04-25T12:04:24.501Z,10.96
2023-04-25T12:06:59.153Z,11.01
2023-04-25T12:09:33.624Z,11.15
2023-04-25T12:12:07.046Z,11.22
2023-04-25T12:14:39.763Z,11.11
2023-04-25T12:17:12.868Z,11.02
2023-04-25T12:19:45.404Z,10.79
2023-04-25T12:22:25.850Z,10.53
2023-04-25T12:24:57.823Z,10.33
2023-04-25T12:27:29.822Z,10.04
2023-04-25T12:30:00.410Z,9.85
2023-04-25T12:32:32.739Z,9.76
2023-04-25T12:35:02.583Z,9.75
2023-04-25T12:37:32.627Z,9.62
2023-04-25T12:40:02.331Z,9.48
2023-04-25T12:42:32.055Z,9.44
2023-04-25T12:45:01.697Z,9.47
2023-04-25T12:47:36.461Z,9.58
2023-04-25T12:50:06.284Z,9.54
2023-04-25T12:52:36.000Z,9.71
2023-04-25T12:55:06.905Z,9.94
2023-04-25T12:57:36.564Z,10.12
2023-04-25T13:00:10.145Z,10.29
2023-04-25T13:02:43.038Z,10.53
2023-04-25T13:05:13.154Z,10.79
2023-04-25T13:07:42.882Z,11.01
2023-04-25T13:10:12.622Z,11.24
2023-04-25T13:12:42.295Z,11.33
2023-04-25T13:15:13.695Z,11.39
2023-04-25T13:17:46.805Z,11.46
2023-04-25T13:20:16.925Z,11.40
2023-04-25T13:22:46.912Z,11.22
2023-04-25T13:25:17.581Z,11.08
2023-04-25T13:27:47.625Z,10.95
2023-04-25T13:30:17.568Z,10.93
2023-04-25T13:32:49.898Z,10.88
2023-04-25T13:35:21.455Z,10.70
2023-04-25T13:37:51.134Z,10.60
2023-04-25T13:40:22.318Z,10.47
2023-04-25T13:42:53.894Z,10.31
2023-04-25T13:45:24.126Z,10.15
2023-04-25T13:47:56.562Z,10.14
2023-04-25T13:50:26.916Z,10.15
2023-04-25T13:52:56.688Z,10.29
2023-04-25T13:55:26.585Z,10.36
2023-04-25T13:57:56.410Z,10.52
2023-04-25T14:00:26.337Z,10.64
2023-04-25T14:02:58.711Z,10.66
2023-04-25T14:05:28.504Z,10.79
2023-04-25T14:07:59.616Z,10.90
2023-04-25T14:10:30.163Z,10.93
2023-04-25T14:12:59.931Z,11.00
2023-04-25T14:15:29.596Z,11.06
2023-04-25T14:18:02.132Z,11.16
2023-04-25T14:20:32.371Z,11.18
2023-04-25T14:23:02.142Z,11.21
2023-04-25T14:25:31.967Z,11.27
2023-04-25T14:28:02.094Z,11.31
2023-04-25T14:30:31.849Z,11.29
2023-04-25T14:33:04.193Z,11.22
2023-04-25T14:35:34.027Z,11.22
2023-04-25T14:38:03.688Z,11.16
2023-04-25T14:40:33.454Z,11.17
2023-04-25T14:43:03.181Z,11.23
2023-04-25T14:45:32.887Z,11.01
2023-04-25T14:48:05.757Z,11.02
2023-04-25T14:50:35.787Z,10.99
2023-04-25T14:53:05.564Z,11.00
2023-04-25T14:55:36.129Z,11.04
2023-04-25T14:58:06.004Z,11.02
2023-04-25T15:00:35.767Z,10.99
2023-04-25T15:03:08.802Z,10.85
2023-04-25T15:05:38.645Z,10.87
2023-04-25T15:08:08.813Z,11.01
2023-04-25T15:10:38.509Z,10.97
2023-04-25T15:13:08.666Z,10.90
2023-04-25T15:15:38.325Z,10.97
2023-04-25T15:18:11.257Z,11.18
2023-04-25T15:20:41.355Z,11.31
2023-04-25T15:23:11.448Z,11.38
2023-04-25T15:25:41.208Z,11.47
2023-04-25T15:28:10.918Z,11.63
2023-04-25T15:30:40.935Z,11.63
2023-04-25T15:33:13.241Z,11.66
2023-04-25T15:35:43.323Z,11.52
2023-04-25T15:38:13.963Z,11.49
2023-04-25T15:40:44.170Z,11.46
2023-04-25T15:43:16.356Z,11.52
2023-04-25T15:45:46.755Z,11.49
2023-04-25T15:48:19.036Z,11.51
2023-04-25T15:50:48.841Z,11.40
2023-04-25T15:53:18.521Z,11.31
2023-04-25T15:55:48.523Z,11.13
2023-04-25T15:58:18.246Z,11.10
2023-04-25T16:00:49.097Z,11.11
2023-04-25T16:03:22.293Z,11.10
2023-04-25T16:05:52.951Z,11.14
2023-04-25T16:08:22.648Z,11.24
2023-04-25T16:10:52.883Z,11.36
2023-04-25T16:13:22.858Z,11.24
2023-04-25T16:15:52.614Z,11.24
2023-04-25T16:18:25.098Z,11.14
2023-04-25T16:20:54.937Z,11.06
2023-04-25T16:23:26.826Z,11.06
2023-04-25T16:25:56.882Z,10.99
2023-04-25T16:28:26.575Z,10.97
2023-04-25T16:30:56.305Z,10.96
2023-04-25T16:33:28.721Z,10.89
2023-04-25T16:35:58.867Z,10.91
2023-04-25T16:38:28.630Z,10.93
2023-04-25T16:40:58.391Z,10.92
2023-04-25T16:43:28.134Z,10.92
2023-04-25T16:45:57.809Z,10.96
2023-04-25T16:48:30.051Z,10.93
2023-04-25T16:50:59.744Z,10.86
2023-04-25T16:53:29.764Z,10.85
2023-04-25T16:55:59.502Z,10.77
2023-04-25T16:58:29.393Z,10.64
2023-04-25T17:00:59.109Z,10.59
2023-04-25T17:03:34.741Z,10.50
2023-04-25T17:06:05.469Z,10.44
2023-04-25T17:08:35.171Z,10.38
2023-04-25T17:11:04.930Z,10.32
2023-04-25T17:13:35.060Z,10.30
2023-04-25T17:16:04.904Z,10.31
2023-04-25T17:18:37.932Z,10.27
2023-04-25T17:21:08.987Z,10.25
2023-04-25T17:23:44.878Z,10.26
2023-04-25T17:26:15.147Z,10.24
2023-04-25T17:28:49.446Z,10.28
2023-04-25T17:31:19.709Z,10.41
2023-04-25T17:33:52.370Z,10.45
2023-04-25T17:36:22.656Z,10.67
2023-04-25T17:38:52.536Z,11.25
2023-04-25T17:41:22.361Z,10.98
2023-04-25T17:43:52.174Z,10.79
2023-04-25T17:46:21.926Z,10.70
2023-04-25T17:48:54.629Z,10.52
2023-04-25T17:51:24.646Z,10.46
2023-04-25T17:53:54.361Z,10.36
2023-04-25T17:56:26.974Z,10.99
2023-04-25T17:58:57.411Z,10.97
2023-04-25T18:01:27.179Z,10.79
2023-04-25T18:03:59.928Z,11.12
2023-04-25T18:06:32.847Z,11.24
2023-04-25T18:09:02.724Z,11.34
2023-04-25T18:11:32.852Z,11.62
2023-04-25T18:14:02.529Z,11.65
2023-04-25T18:16:32.391Z,11.42
2023-04-25T18:19:05.807Z,11.08
2023-04-25T18:21:36.410Z,10.86
2023-04-25T18:24:06.584Z,10.64
2023-04-25T18:26:36.356Z,10.32
2023-04-25T18:29:07.590Z,10.16
2023-04-25T18:31:37.581Z,10.01
2023-04-25T18:34:10.292Z,9.91
2023-04-25T18:36:40.529Z,9.82
2023-04-25T18:39:21.972Z,9.71
2023-04-25T18:41:59.260Z,9.60
2023-04-25T18:44:32.363Z,9.47
2023-04-25T18:47:02.091Z,9.36
2023-04-25T18:49:34.403Z,9.27
2023-04-25T18:52:04.136Z,9.17
2023-04-25T18:54:34.453Z,9.11
2023-04-25T18:57:04.064Z,9.05
2023-04-25T18:59:33.770Z,8.92
2023-04-25T19:02:05.445Z,8.86
2023-04-25T19:04:38.279Z,8.80
2023-04-25T19:07:08.146Z,8.73
2023-04-25T19:09:37.811Z,8.66
2023-04-25T19:12:07.923Z,8.62
2023-04-25T19:14:37.805Z,8.58
2023-04-25T19:17:07.607Z,8.52
2023-04-25T19:19:40.357Z,8.46
2023-04-25T19:22:10.897Z,8.37
2023-04-25T19:24:40.701Z,8.33
2023-04-25T19:27:10.377Z,8.28
2023-04-25T19:29:44.449Z,8.23
2023-04-25T19:32:14.254Z,8.13
2023-04-25T19:34:46.574Z,8.13
2023-04-25T19:37:17.116Z,8.07
2023-04-25T19:39:48.052Z,7.98
2023-04-25T19:42:19.298Z,7.95
2023-04-25T19:44:49.025Z,7.87
2023-04-25T19:47:18.665Z,7.83
2023-04-25T19:49:50.987Z,7.79
2023-04-25T19:52:20.912Z,7.75
2023-04-25T19:54:50.768Z,7.67
2023-04-25T19:57:20.469Z,7.63
2023-04-25T19:59:50.120Z,7.56
2023-04-25T20:02:21.516Z,7.52
2023-04-25T20:04:54.056Z,7.50
2023-04-25T20:07:24.640Z,7.46
2023-04-25T20:09:54.264Z,7.44
2023-04-25T20:12:23.917Z,7.40
2023-04-25T20:14:53.695Z,7.34
2023-04-25T20:17:23.527Z,7.29
2023-04-25T20:19:56.589Z,7.23
2023-04-25T20:22:28.633Z,7.17
2023-04-25T20:24:58.478Z,7.14
2023-04-25T20:27:28.272Z,7.13
2023-04-25T20:29:57.984Z,7.09
2023-04-25T20:32:27.927Z,7.08
2023-04-25T20:35:00.420Z,7.04
2023-04-25T20:37:31.603Z,6.99
2023-04-25T20:40:02.006Z,6.97
2023-04-25T20:42:32.160Z,6.92
2023-04-25T20:45:01.809Z,6.90
2023-04-25T20:47:31.588Z,6.85
2023-04-25T20:50:04.173Z,6.81
2023-04-25T20:52:34.267Z,6.76
2023-04-25T20:55:04.098Z,6.70
2023-04-25T20:57:33.976Z,6.59
2023-04-25T21:00:05.491Z,6.52
2023-04-25T21:02:35.482Z,6.45
2023-04-25T21:05:08.570Z,6.38
2023-04-25T21:07:38.360Z,6.33
2023-04-25T21:10:08.674Z,6.29
2023-04-25T21:12:38.445Z,6.22
2023-04-25T21:15:09.117Z,6.17
2023-04-25T21:17:38.947Z,6.12
2023-04-25T21:20:13.747Z,6.07
2023-04-25T21:22:51.022Z,6.04
2023-04-25T21:25:24.610Z,5.99
2023-04-25T21:27:55.613Z,5.94
2023-04-25T21:30:26.568Z,5.87
2023-04-25T21:32:56.925Z,5.80
2023-04-25T21:35:29.378Z,5.73
2023-04-25T21:37:59.260Z,5.66
2023-04-25T21:40:29.293Z,5.61
2023-04-25T21:42:59.043Z,5.53
2023-04-25T21:45:29.308Z,5.46
2023-04-25T21:47:59.122Z,5.41
2023-04-25T21:50:31.663Z,5.34
2023-04-25T21:53:01.413Z,5.29
2023-04-25T21:55:31.736Z,5.25
2023-04-25T21:58:01.623Z,5.19
2023-04-25T22:00:32.288Z,5.14
2023-04-25T22:03:02.519Z,5.10
2023-04-25T22:05:35.138Z,5.08
2023-04-25T22:08:04.791Z,5.01
2023-04-25T22:10:34.803Z,4.97
2023-04-25T22:13:05.710Z,4.90
2023-04-25T22:15:35.738Z,4.86
2023-04-25T22:18:05.785Z,4.81
2023-04-25T22:20:38.946Z,4.81
2023-04-25T22:23:08.918Z,4.78
2023-04-25T22:25:38.666Z,4.75
2023-04-25T22:28:08.507Z,4.73
2023-04-25T22:30:38.295Z,4.71
2023-04-25T22:33:08.052Z,4.66
2023-04-25T22:35:40.444Z,4.64
2023-04-25T22:38:10.657Z,4.63
2023-04-25T22:40:40.480Z,4.60
2023-04-25T22:43:10.693Z,4.62
2023-04-25T22:45:42.271Z,4.60
2023-04-25T22:48:12.073Z,4.62
2023-04-25T22:50:45.627Z,4.63
2023-04-25T22:53:15.273Z,4.63
2023-04-25T22:55:44.936Z,4.63
2023-04-25T22:58:14.821Z,4.60
2023-04-25T23:00:44.543Z,4.58
2023-04-25T23:03:14.312Z,4.57
2023-04-25T23:05:46.720Z,4.52
2023-04-25T23:08:17.574Z,4.47
2023-04-25T23:10:47.928Z,4.44
2023-04-25T23:13:18.371Z,4.44
2023-04-25T23:15:48.046Z,4.41
2023-04-25T23:18:17.877Z,4.37
2023-04-25T23:20:50.236Z,4.35
2023-04-25T23:23:19.958Z,4.30
2023-04-25T23:25:49.661Z,4.28
2023-04-25T23:28:19.497Z,4.24
2023-04-25T23:30:49.288Z,4.18
2023-04-25T23:33:18.966Z,4.17
2023-04-25T23:35:51.241Z,4.13
2023-04-25T23:38:21.012Z,4.11
2023-04-25T23:40:50.731Z,4.07
2023-04-25T23:43:20.487Z,4.04
2023-04-25T23:45:50.224Z,4.02
2023-04-25T23:48:19.884Z,3.99
2023-04-25T23:50:52.151Z,3.95
2023-04-25T23:53:22.006Z,3.91
2023-04-25T23:55:51.779Z,3.87
2023-04-25T23:58:21.475Z,3.83
